Time;durP1;ratioP1;P1;durP2;ratioP2;P2;SDS_P1;SDS_P2;PMS_P1;PMS_P2;Temp;Humidity;BMP_temperature;BMP_pressure;BME280_temperature;BME280_humidity;BME280_pressure;Samples;Min_cycle;Max_cycle;Signal;HPM_P1;HPM_P2
2023/01/13 00:00:11;;;;;;;1.73;0.55;;;;;;;;;;5117501;28;20046;-58
2023/01/13 00:02:37;;;;;;;1.02;0.35;;;;;;;;;;5116866;28;20130;-58
2023/01/13 00:05:03;;;;;;;2.03;0.65;;;;;;;;;;5117090;28;20114;-56
2023/01/13 00:07:29;;;;;;;2.65;0.40;;;;;;;;;;5116537;28;20031;-57
2023/01/13 00:09:55;;;;;;;1.25;0.25;;;;;;;;;;5116836;28;20477;-58
2023/01/13 00:12:21;;;;;;;1.85;0.70;;;;;;;;;;5116753;28;20392;-58
2023/01/13 00:14:47;;;;;;;0.68;0.22;;;;;;;;;;5117276;28;20381;-57
2023/01/13 00:17:13;;;;;;;0.73;0.40;;;;;;;;;;5116929;28;20027;-58
2023/01/13 00:19:39;;;;;;;2.17;0.80;;;;;;;;;;5116613;28;20046;-58
2023/01/13 00:22:05;;;;;;;0.75;0.38;;;;;;;;;;5116166;28;20414;-58
2023/01/13 00:24:31;;;;;;;0.10;0.10;;;;;;;;;;5116554;28;20064;-58
2023/01/13 00:26:57;;;;;;;1.27;0.30;;;;;;;;;;5116493;28;20032;-56
2023/01/13 00:29:23;;;;;;;1.00;0.45;;;;;;;;;;5116692;28;20024;-58
2023/01/13 00:31:49;;;;;;;0.47;0.20;;;;;;;;;;5115527;28;20028;-58
2023/01/13 00:34:15;;;;;;;2.90;0.43;;;;;;;;;;5097374;28;20102;-56
2023/01/13 00:36:41;;;;;;;2.70;0.65;;;;;;;;;;5116512;28;20049;-56
2023/01/13 00:39:07;;;;;;;0.88;0.50;;;;;;;;;;5115945;28;20465;-58
2023/01/13 00:43:21;;;;;;;1.65;0.43;;;;;;;;;;5116959;28;20361;-58
2023/01/13 00:44:19;;;;;;;1.30;0.35;;;;;;;;;;5115743;28;20032;-58
2023/01/13 00:46:45;;;;;;;0.60;0.25;;;;;;;;;;5116017;28;20031;-56
2023/01/13 00:49:11;;;;;;;1.60;0.32;;;;;;;;;;5116588;28;20028;-56
2023/01/13 00:51:37;;;;;;;0.32;0.17;;;;;;;;;;5115940;28;20024;-58
2023/01/13 00:54:03;;;;;;;0.52;0.15;;;;;;;;;;5115917;28;20031;-58
2023/01/13 00:56:29;;;;;;;3.80;0.40;;;;;;;;;;5115758;28;20100;-57
2023/01/13 00:58:57;;;;;;;2.88;0.50;;;;;;;;;;5115816;28;20020;-57
2023/01/13 01:01:24;;;;;;;0.50;0.10;;;;;;;;;;5115994;28;20084;-57
2023/01/13 01:03:50;;;;;;;0.98;0.52;;;;;;;;;;5115694;28;20111;-58
2023/01/13 01:06:17;;;;;;;1.65;0.35;;;;;;;;;;5115655;28;20058;-58
2023/01/13 01:08:43;;;;;;;1.52;0.55;;;;;;;;;;5115632;28;20354;-58
2023/01/13 01:11:20;;;;;;;0.75;0.30;;;;;;;;;;5116169;28;20035;-57
2023/01/13 01:13:46;;;;;;;0.65;0.20;;;;;;;;;;5115559;28;20020;-58
2023/01/13 01:16:13;;;;;;;5.88;0.52;;;;;;;;;;5115824;28;20077;-58
2023/01/13 01:18:40;;;;;;;0.90;0.30;;;;;;;;;;5115704;28;20032;-58
2023/01/13 01:21:07;;;;;;;1.23;0.40;;;;;;;;;;5115880;28;20027;-58
2023/01/13 01:23:34;;;;;;;0.32;0.13;;;;;;;;;;5114928;28;20582;-58
2023/01/13 01:26:00;;;;;;;0.38;0.10;;;;;;;;;;5115558;28;20088;-57
2023/01/13 01:28:26;;;;;;;0.73;0.30;;;;;;;;;;5114957;28;20118;-58
2023/01/13 01:30:54;;;;;;;0.15;0.08;;;;;;;;;;5115681;28;20466;-58
2023/01/13 01:33:20;;;;;;;3.47;0.30;;;;;;;;;;5115980;28;20084;-58
2023/01/13 01:35:46;;;;;;;0.77;0.40;;;;;;;;;;5115207;28;20028;-58
2023/01/13 01:38:12;;;;;;;0.28;0.10;;;;;;;;;;5114728;28;20034;-57
2023/01/13 01:40:38;;;;;;;0.45;0.25;;;;;;;;;;5114965;28;20031;-57
2023/01/13 01:45:56;;;;;;;1.05;0.40;;;;;;;;;;5114757;28;20034;-58
2023/01/13 01:48:22;;;;;;;1.25;0.30;;;;;;;;;;5115452;28;20516;-56
2023/01/13 01:50:48;;;;;;;0.75;0.30;;;;;;;;;;5114870;28;20407;-57
2023/01/13 01:53:17;;;;;;;0.57;0.20;;;;;;;;;;5114763;28;20072;-56
2023/01/13 01:55:43;;;;;;;0.47;0.25;;;;;;;;;;5115047;28;20034;-56
2023/01/13 01:58:11;;;;;;;0.52;0.22;;;;;;;;;;5114634;28;20020;-57
2023/01/13 02:00:37;;;;;;;1.00;0.30;;;;;;;;;;5115088;28;20119;-57
2023/01/13 02:03:04;;;;;;;0.30;0.20;;;;;;;;;;5114757;28;20440;-56
2023/01/13 02:05:30;;;;;;;3.33;0.63;;;;;;;;;;5097098;28;20453;-56
2023/01/13 02:07:57;;;;;;;3.78;0.57;;;;;;;;;;5114512;28;20031;-56
2023/01/13 02:10:26;;;;;;;0.45;0.13;;;;;;;;;;5115304;28;20093;-60
2023/01/13 02:12:52;;;;;;;1.58;0.50;;;;;;;;;;5114403;28;20032;-58
2023/01/13 02:15:22;;;;;;;2.53;0.30;;;;;;;;;;5114741;28;20024;-57
2023/01/13 02:17:58;;;;;;;3.10;0.30;;;;;;;;;;5114301;28;20035;-57
2023/01/13 02:20:36;;;;;;;2.20;0.50;;;;;;;;;;5114668;28;20030;-57
2023/01/13 02:23:02;;;;;;;0.80;0.30;;;;;;;;;;5114349;28;20106;-57
2023/01/13 02:25:44;;;;;;;0.98;0.22;;;;;;;;;;5114484;28;20165;-57
2023/01/13 02:28:25;;;;;;;1.25;0.60;;;;;;;;;;5114593;28;20028;-57
2023/01/13 02:33:59;;;;;;;5.05;0.60;;;;;;;;;;5114312;28;20074;-56
2023/01/13 02:36:28;;;;;;;2.10;0.65;;;;;;;;;;5114209;28;20076;-56
2023/01/13 02:39:02;;;;;;;1.45;0.50;;;;;;;;;;5114182;28;20466;-56
2023/01/13 02:44:22;;;;;;;1.02;0.43;;;;;;;;;;5082322;28;20046;-56
2023/01/13 02:46:54;;;;;;;1.25;0.43;;;;;;;;;;5113998;28;20084;-56
2023/01/13 02:49:25;;;;;;;0.10;0.10;;;;;;;;;;5114039;28;20027;-56
2023/01/13 02:51:52;;;;;;;1.08;0.40;;;;;;;;;;5114040;28;20031;-56
2023/01/13 02:54:21;;;;;;;1.08;0.98;;;;;;;;;;5114591;28;20077;-56
2023/01/13 02:56:49;;;;;;;2.05;0.30;;;;;;;;;;5116413;28;20116;-56
2023/01/13 02:59:16;;;;;;;0.57;0.25;;;;;;;;;;5118411;28;20373;-56
2023/01/13 03:01:42;;;;;;;3.13;0.52;;;;;;;;;;5118435;28;20044;-57
2023/01/13 03:04:12;;;;;;;1.10;0.43;;;;;;;;;;5118060;28;20031;-57
2023/01/13 03:06:48;;;;;;;0.43;0.20;;;;;;;;;;5118789;28;20122;-56
2023/01/13 03:09:29;;;;;;;0.80;0.40;;;;;;;;;;5118311;28;20449;-56
2023/01/13 03:12:01;;;;;;;2.38;0.68;;;;;;;;;;5118249;28;20019;-56
2023/01/13 03:14:35;;;;;;;1.33;0.80;;;;;;;;;;5118227;28;20030;-57
2023/01/13 03:17:19;;;;;;;2.28;0.47;;;;;;;;;;5117839;28;20096;-55
2023/01/13 03:19:57;;;;;;;1.90;0.57;;;;;;;;;;5118327;28;20024;-55
2023/01/13 03:22:29;;;;;;;3.85;0.55;;;;;;;;;;5117679;28;20046;-57
2023/01/13 03:25:01;;;;;;;0.35;0.10;;;;;;;;;;5117940;28;20035;-56
2023/01/13 03:27:46;;;;;;;0.50;0.30;;;;;;;;;;5117541;28;20038;-56
2023/01/13 03:30:22;;;;;;;4.53;0.75;;;;;;;;;;5117515;28;20077;-56
2023/01/13 03:32:55;;;;;;;1.90;0.30;;;;;;;;;;5118133;28;20032;-60
2023/01/13 03:35:37;;;;;;;0.52;0.20;;;;;;;;;;5117832;28;20035;-57
2023/01/13 03:38:05;;;;;;;0.57;0.20;;;;;;;;;;5117150;28;20020;-56
2023/01/13 03:40:38;;;;;;;2.33;0.38;;;;;;;;;;5117424;28;20059;-58
2023/01/13 03:46:06;;;;;;;1.50;0.50;;;;;;;;;;5093109;28;20130;-58
2023/01/13 03:48:34;;;;;;;0.40;0.30;;;;;;;;;;5117197;28;20031;-58
2023/01/13 03:51:05;;;;;;;0.88;0.30;;;;;;;;;;5117477;28;20019;-56
2023/01/13 03:53:33;;;;;;;0.10;0.05;;;;;;;;;;5117673;28;20063;-58
2023/01/13 03:56:07;;;;;;;0.73;0.20;;;;;;;;;;5117434;28;20114;-58
2023/01/13 03:58:34;;;;;;;0.50;0.28;;;;;;;;;;5117358;28;20020;-58
2023/01/13 04:01:02;;;;;;;0.00;0.00;;;;;;;;;;5117328;28;20354;-58
2023/01/13 04:03:35;;;;;;;4.25;0.30;;;;;;;;;;5117188;28;20105;-55
2023/01/13 04:06:07;;;;;;;0.70;0.30;;;;;;;;;;5117189;28;20042;-58
2023/01/13 04:08:34;;;;;;;1.20;0.38;;;;;;;;;;5116501;28;20084;-58
2023/01/13 04:11:06;;;;;;;1.58;0.35;;;;;;;;;;5116859;28;20031;-58
2023/01/13 04:13:36;;;;;;;0.77;0.20;;;;;;;;;;5116738;28;20084;-57
2023/01/13 04:16:04;;;;;;;1.13;0.40;;;;;;;;;;5116928;28;20355;-58
2023/01/13 04:18:30;;;;;;;1.58;0.50;;;;;;;;;;5116616;28;20157;-58
2023/01/13 04:20:57;;;;;;;0.73;0.30;;;;;;;;;;5116591;28;20020;-58
2023/01/13 04:23:23;;;;;;;1.75;0.52;;;;;;;;;;5116579;28;20024;-58
2023/01/13 04:25:50;;;;;;;1.52;0.88;;;;;;;;;;5116689;28;20116;-57
2023/01/13 04:28:17;;;;;;;0.13;0.03;;;;;;;;;;5116489;28;20461;-56
2023/01/13 04:30:43;;;;;;;0.22;0.20;;;;;;;;;;5116944;28;20110;-58
2023/01/13 04:33:09;;;;;;;1.90;0.30;;;;;;;;;;5116473;28;20453;-58
2023/01/13 04:35:36;;;;;;;0.20;0.13;;;;;;;;;;5116751;28;20116;-58
2023/01/13 04:38:02;;;;;;;0.47;0.30;;;;;;;;;;5116381;28;20470;-58
2023/01/13 04:40:28;;;;;;;2.28;0.93;;;;;;;;;;5116583;28;20030;-58
2023/01/13 04:42:54;;;;;;;0.40;0.30;;;;;;;;;;5116232;28;20023;-58
2023/01/13 04:45:20;;;;;;;2.92;0.65;;;;;;;;;;5116641;28;20120;-57
2023/01/13 04:47:47;;;;;;;0.30;0.10;;;;;;;;;;5116111;28;20046;-58
2023/01/13 04:50:13;;;;;;;0.75;0.40;;;;;;;;;;5116049;28;20110;-57
2023/01/13 04:52:39;;;;;;;1.15;0.30;;;;;;;;;;5115737;28;20024;-58
2023/01/13 04:55:06;;;;;;;1.10;0.25;;;;;;;;;;5116143;28;20024;-57
2023/01/13 04:57:33;;;;;;;0.20;0.10;;;;;;;;;;5115999;28;20028;-58
2023/01/13 04:59:59;;;;;;;0.50;0.20;;;;;;;;;;5115913;28;20031;-58
2023/01/13 05:02:25;;;;;;;1.42;0.20;;;;;;;;;;5115716;28;20052;-58
2023/01/13 05:04:51;;;;;;;0.20;0.10;;;;;;;;;;5116334;28;20027;-58
2023/01/13 05:07:17;;;;;;;0.20;0.10;;;;;;;;;;5116290;28;20040;-58
2023/01/13 05:09:43;;;;;;;0.10;0.00;;;;;;;;;;5115442;28;20113;-59
2023/01/13 05:17:39;;;;;;;2.28;0.38;;;;;;;;;;5115735;28;20077;-58
2023/01/13 05:20:05;;;;;;;1.40;0.50;;;;;;;;;;5114491;28;20115;-58
2023/01/13 05:25:23;;;;;;;0.93;0.35;;;;;;;;;;5115222;28;20034;-58
2023/01/13 05:27:49;;;;;;;2.13;0.30;;;;;;;;;;5115942;28;20429;-58
2023/01/13 05:30:16;;;;;;;0.32;0.13;;;;;;;;;;5115595;28;20112;-58
2023/01/13 05:32:42;;;;;;;0.20;0.10;;;;;;;;;;5115187;28;20031;-58
2023/01/13 05:35:08;;;;;;;0.82;0.30;;;;;;;;;;5115265;28;20038;-58
2023/01/13 05:37:34;;;;;;;0.52;0.25;;;;;;;;;;5115111;28;20019;-58
2023/01/13 05:45:30;;;;;;;0.50;0.30;;;;;;;;;;5114816;28;20038;-58
2023/01/13 05:47:56;;;;;;;0.90;0.30;;;;;;;;;;5114981;28;20020;-58
2023/01/13 05:50:22;;;;;;;0.43;0.28;;;;;;;;;;5115722;28;20020;-58
2023/01/13 05:52:48;;;;;;;0.28;0.10;;;;;;;;;;5115468;28;20045;-59
2023/01/13 05:55:14;;;;;;;3.25;0.17;;;;;;;;;;5115442;28;20090;-58
2023/01/13 05:57:40;;;;;;;0.25;0.10;;;;;;;;;;5114797;28;20454;-58
2023/01/13 06:00:07;;;;;;;1.33;0.35;;;;;;;;;;5114769;28;20098;-58
2023/01/13 06:02:33;;;;;;;0.32;0.15;;;;;;;;;;5114535;28;20053;-58
2023/01/13 06:04:59;;;;;;;0.00;0.00;;;;;;;;;;5114595;28;20027;-58
2023/01/13 06:07:25;;;;;;;0.30;0.13;;;;;;;;;;5115014;28;20032;-58
2023/01/13 06:09:51;;;;;;;0.52;0.10;;;;;;;;;;5114592;28;20020;-58
2023/01/13 06:12:17;;;;;;;0.52;0.20;;;;;;;;;;5114497;28;20024;-58
2023/01/13 06:14:43;;;;;;;0.32;0.13;;;;;;;;;;5114862;28;20089;-58
2023/01/13 06:17:10;;;;;;;1.85;0.30;;;;;;;;;;5115531;28;20124;-58
2023/01/13 06:19:36;;;;;;;0.75;0.25;;;;;;;;;;5114739;28;20106;-57
2023/01/13 06:22:14;;;;;;;0.70;0.30;;;;;;;;;;5114462;28;20148;-58
2023/01/13 06:24:40;;;;;;;2.50;0.28;;;;;;;;;;5114565;28;20038;-57
2023/01/13 06:27:07;;;;;;;0.85;0.10;;;;;;;;;;5114307;28;20028;-58
2023/01/13 06:29:33;;;;;;;1.75;0.52;;;;;;;;;;5114498;28;20051;-58
2023/01/13 06:32:01;;;;;;;0.15;0.15;;;;;;;;;;5114238;28;20436;-58
2023/01/13 06:34:27;;;;;;;0.80;0.30;;;;;;;;;;5114609;28;20058;-57
2023/01/13 06:36:53;;;;;;;0.20;0.10;;;;;;;;;;5114280;28;20031;-59
2023/01/13 06:39:22;;;;;;;1.80;0.32;;;;;;;;;;5114156;28;20024;-57
2023/01/13 06:44:34;;;;;;;0.60;0.20;;;;;;;;;;5114203;28;20111;-58
2023/01/13 06:47:00;;;;;;;0.40;0.13;;;;;;;;;;5114621;28;20024;-57
2023/01/13 06:49:25;;;;;;;0.35;0.10;;;;;;;;;;5114127;28;20026;-58
2023/01/13 06:51:51;;;;;;;0.10;0.10;;;;;;;;;;5113693;28;20462;-57
2023/01/13 06:54:17;;;;;;;0.85;0.20;;;;;;;;;;5114952;28;20506;-58
2023/01/13 06:56:43;;;;;;;0.20;0.10;;;;;;;;;;5113750;28;20475;-58
2023/01/13 06:59:09;;;;;;;0.60;0.30;;;;;;;;;;5113837;28;20024;-58
2023/01/13 07:01:35;;;;;;;0.57;0.30;;;;;;;;;;5113661;28;20098;-57
2023/01/13 07:04:01;;;;;;;0.08;0.08;;;;;;;;;;5114104;28;20030;-58
2023/01/13 07:06:27;;;;;;;0.10;0.10;;;;;;;;;;5113915;28;20039;-57
2023/01/13 07:08:53;;;;;;;0.82;0.20;;;;;;;;;;5114758;28;20023;-57
2023/01/13 07:11:19;;;;;;;1.52;0.43;;;;;;;;;;5113966;28;20106;-58
2023/01/13 07:16:31;;;;;;;0.77;0.25;;;;;;;;;;5114034;28;20030;-58
2023/01/13 07:18:57;;;;;;;0.00;0.00;;;;;;;;;;5114262;28;20457;-58
2023/01/13 07:21:23;;;;;;;0.35;0.20;;;;;;;;;;5113817;28;20093;-58
2023/01/13 07:23:49;;;;;;;0.03;0.03;;;;;;;;;;5113487;28;20028;-58
2023/01/13 07:26:15;;;;;;;1.98;0.30;;;;;;;;;;5113830;28;20031;-58
2023/01/13 07:28:41;;;;;;;0.13;0.03;;;;;;;;;;5095134;28;20073;-57
2023/01/13 07:31:14;;;;;;;0.20;0.10;;;;;;;;;;5113867;28;20043;-57
2023/01/13 07:33:40;;;;;;;0.20;0.10;;;;;;;;;;5113343;28;20031;-55
2023/01/13 07:36:06;;;;;;;0.80;0.08;;;;;;;;;;5114353;28;20031;-58
2023/01/13 07:38:33;;;;;;;0.20;0.10;;;;;;;;;;5113929;28;20023;-57
2023/01/13 07:43:44;;;;;;;1.63;1.05;;;;;;;;;;5117648;28;20110;-58
2023/01/13 07:46:10;;;;;;;1.65;0.40;;;;;;;;;;5117633;28;20119;-58
2023/01/13 07:48:36;;;;;;;0.77;0.45;;;;;;;;;;5117288;28;20419;-58
2023/01/13 07:51:06;;;;;;;1.65;0.70;;;;;;;;;;5117465;28;20024;-56
2023/01/13 07:53:32;;;;;;;0.30;0.20;;;;;;;;;;5117178;28;20023;-59
2023/01/13 07:55:59;;;;;;;0.82;0.10;;;;;;;;;;5117888;28;20028;-56
2023/01/13 07:58:25;;;;;;;0.70;0.17;;;;;;;;;;5117391;28;20148;-57
2023/01/13 08:00:52;;;;;;;1.65;0.30;;;;;;;;;;5117372;28;20073;-57
2023/01/13 08:03:17;;;;;;;0.00;0.00;;;;;;;;;;5117396;28;20058;-55
2023/01/13 08:05:44;;;;;;;0.63;0.20;;;;;;;;;;5116980;28;20374;-57
2023/01/13 08:08:09;;;;;;;0.32;0.10;;;;;;;;;;5117488;28;20095;-58
2023/01/13 08:10:36;;;;;;;0.10;0.10;;;;;;;;;;5117186;28;20102;-58
2023/01/13 08:13:18;;;;;;;0.13;0.10;;;;;;;;;;5117615;28;20063;-58
2023/01/13 08:15:45;;;;;;;0.00;0.00;;;;;;;;;;5117333;28;20107;-58
2023/01/13 08:18:11;;;;;;;0.00;0.00;;;;;;;;;;5116755;28;20027;-57
2023/01/13 08:20:37;;;;;;;2.38;0.15;;;;;;;;;;5116726;28;20412;-57
2023/01/13 08:23:03;;;;;;;0.20;0.10;;;;;;;;;;5116711;28;20072;-58
2023/01/13 08:25:29;;;;;;;0.90;0.45;;;;;;;;;;5116488;28;20118;-58
2023/01/13 08:27:56;;;;;;;0.43;0.10;;;;;;;;;;5116564;28;20039;-56
2023/01/13 08:30:22;;;;;;;0.08;0.03;;;;;;;;;;5116549;28;20442;-56
2023/01/13 08:32:49;;;;;;;0.38;0.20;;;;;;;;;;5116319;28;20496;-54
2023/01/13 08:35:16;;;;;;;0.03;0.00;;;;;;;;;;5116925;28;20028;-57
2023/01/13 08:37:42;;;;;;;0.05;0.05;;;;;;;;;;5116840;28;20499;-57
2023/01/13 08:40:08;;;;;;;0.20;0.10;;;;;;;;;;5116391;28;20097;-57
2023/01/13 08:42:34;;;;;;;0.22;0.10;;;;;;;;;;5115999;28;20023;-57
2023/01/13 08:45:00;;;;;;;0.35;0.20;;;;;;;;;;5116482;28;20035;-58
2023/01/13 08:47:27;;;;;;;0.60;0.13;;;;;;;;;;5116718;28;20064;-59
2023/01/13 08:49:53;;;;;;;0.10;0.10;;;;;;;;;;5116137;28;20047;-58
2023/01/13 08:52:19;;;;;;;0.73;0.22;;;;;;;;;;5116552;28;20473;-57
2023/01/13 08:54:45;;;;;;;0.20;0.10;;;;;;;;;;5115276;28;20030;-58
2023/01/13 08:57:11;;;;;;;0.25;0.13;;;;;;;;;;5116304;28;20094;-58
2023/01/13 08:59:37;;;;;;;1.30;0.68;;;;;;;;;;5115994;28;20031;-58
2023/01/13 09:02:03;;;;;;;1.13;0.10;;;;;;;;;;5097110;28;20051;-58
2023/01/13 09:04:30;;;;;;;0.30;0.10;;;;;;;;;;5115723;28;20352;-57
2023/01/13 09:06:56;;;;;;;0.22;0.10;;;;;;;;;;5116713;28;20024;-58
2023/01/13 09:09:22;;;;;;;0.20;0.10;;;;;;;;;;5115728;28;20039;-57
2023/01/13 09:14:36;;;;;;;0.00;0.00;;;;;;;;;;5116042;28;20046;-58
2023/01/13 09:17:02;;;;;;;0.40;0.20;;;;;;;;;;5115347;28;20091;-58
2023/01/13 09:19:28;;;;;;;2.10;0.30;;;;;;;;;;5115553;28;20020;-58
2023/01/13 09:21:55;;;;;;;0.52;0.25;;;;;;;;;;5115826;28;20024;-58
2023/01/13 09:24:21;;;;;;;0.98;0.30;;;;;;;;;;5115703;28;20126;-57
2023/01/13 09:26:47;;;;;;;0.10;0.00;;;;;;;;;;5115371;28;20060;-57
2023/01/13 09:29:13;;;;;;;0.98;0.43;;;;;;;;;;5115349;28;20030;-58
2023/01/13 09:31:40;;;;;;;0.52;0.10;;;;;;;;;;5115403;28;20476;-57
2023/01/13 09:36:52;;;;;;;0.30;0.10;;;;;;;;;;5115503;28;20166;-58
2023/01/13 09:39:18;;;;;;;0.85;0.30;;;;;;;;;;5115468;28;20055;-57
2023/01/13 09:44:42;;;;;;;0.10;0.00;;;;;;;;;;5115406;28;20034;-58
2023/01/13 09:47:14;;;;;;;0.17;0.13;;;;;;;;;;5115679;28;20376;-56
2023/01/13 09:49:41;;;;;;;0.10;0.00;;;;;;;;;;5115674;28;20020;-57
2023/01/13 09:52:22;;;;;;;0.73;0.10;;;;;;;;;;5114564;28;20477;-56
2023/01/13 09:54:51;;;;;;;0.10;0.10;;;;;;;;;;5115447;28;20031;-56
2023/01/13 09:57:18;;;;;;;0.30;0.05;;;;;;;;;;5114791;28;20020;-57
2023/01/13 09:59:44;;;;;;;0.60;0.10;;;;;;;;;;5114403;28;20023;-55
2023/01/13 10:02:25;;;;;;;0.20;0.10;;;;;;;;;;5114812;28;20059;-56
2023/01/13 10:05:05;;;;;;;1.00;0.05;;;;;;;;;;5114923;28;20085;-55
2023/01/13 10:07:33;;;;;;;0.70;0.20;;;;;;;;;;5115234;28;20023;-54
2023/01/13 10:10:01;;;;;;;0.17;0.08;;;;;;;;;;5114908;28;20089;-53
2023/01/13 10:15:16;;;;;;;0.25;0.10;;;;;;;;;;5114385;28;20066;-55
2023/01/13 10:17:54;;;;;;;0.43;0.13;;;;;;;;;;5114535;28;20369;-56
2023/01/13 10:20:23;;;;;;;0.00;0.00;;;;;;;;;;5114530;28;20059;-56
2023/01/13 10:23:07;;;;;;;2.03;0.30;;;;;;;;;;5115149;28;20341;-56
2023/01/13 10:25:34;;;;;;;0.00;0.00;;;;;;;;;;5114754;28;20031;-57
2023/01/13 10:28:11;;;;;;;1.20;0.30;;;;;;;;;;5114801;28;20034;-56
2023/01/13 10:30:42;;;;;;;0.38;0.08;;;;;;;;;;5114834;28;20019;-56
2023/01/13 10:33:08;;;;;;;;;;;;;;;;;;5114785;28;20024;-57
2023/01/13 10:35:48;;;;;;;1.25;0.20;;;;;;;;;;5114675;28;20261;-56
2023/01/13 10:38:23;;;;;;;0.52;0.10;;;;;;;;;;5114541;28;20046;-57
2023/01/13 10:40:51;;;;;;;2.22;0.10;;;;;;;;;;5114574;28;20023;-57
2023/01/13 10:43:17;;;;;;;0.40;0.10;;;;;;;;;;5114210;28;20058;-56
2023/01/13 10:45:51;;;;;;;0.43;0.10;;;;;;;;;;5114628;28;20077;-57
2023/01/13 10:48:17;;;;;;;0.00;0.00;;;;;;;;;;5114751;28;20028;-55
2023/01/13 10:50:47;;;;;;;0.70;0.25;;;;;;;;;;5114145;28;20114;-55
2023/01/13 10:53:17;;;;;;;0.47;0.10;;;;;;;;;;5114684;28;20038;-56
2023/01/13 10:55:43;;;;;;;0.80;0.32;;;;;;;;;;5114443;28;20126;-56
2023/01/13 10:58:13;;;;;;;0.88;0.28;;;;;;;;;;5114077;28;20444;-55
2023/01/13 11:00:39;;;;;;;0.00;0.00;;;;;;;;;;5114170;28;20055;-56
2023/01/13 11:03:15;;;;;;;0.00;0.00;;;;;;;;;;5114509;28;20385;-56
2023/01/13 11:05:48;;;;;;;0.20;0.10;;;;;;;;;;5114051;28;20032;-57
2023/01/13 11:08:21;;;;;;;0.80;0.20;;;;;;;;;;5114385;28;20125;-57
2023/01/13 11:10:49;;;;;;;0.17;0.05;;;;;;;;;;5113868;28;20024;-56
2023/01/13 11:13:21;;;;;;;0.70;0.20;;;;;;;;;;5113886;28;20019;-56
2023/01/13 11:15:56;;;;;;;0.30;0.20;;;;;;;;;;5114312;28;20056;-56
2023/01/13 11:18:34;;;;;;;0.77;0.13;;;;;;;;;;5117532;28;20030;-54
2023/01/13 11:21:03;;;;;;;0.68;0.38;;;;;;;;;;5118222;28;20027;-53
2023/01/13 11:23:36;;;;;;;0.40;0.20;;;;;;;;;;5118001;28;20028;-51
2023/01/13 11:26:05;;;;;;;0.00;0.00;;;;;;;;;;5117818;28;20085;-56
2023/01/13 11:28:36;;;;;;;0.13;0.10;;;;;;;;;;5118311;28;20019;-52
2023/01/13 11:31:14;;;;;;;0.05;0.05;;;;;;;;;;5118314;28;20504;-54
2023/01/13 11:33:43;;;;;;;0.52;0.20;;;;;;;;;;5117891;28;20366;-54
2023/01/13 11:36:28;;;;;;;1.45;0.20;;;;;;;;;;5117682;28;20102;-54
2023/01/13 11:38:54;;;;;;;3.25;0.32;;;;;;;;;;5118423;28;20465;-56
2023/01/13 11:41:39;;;;;;;0.22;0.10;;;;;;;;;;5117562;28;20357;-54
2023/01/13 11:44:22;;;;;;;0.10;0.10;;;;;;;;;;5117793;28;20361;-56
2023/01/13 11:46:49;;;;;;;0.03;0.00;;;;;;;;;;5117329;28;20036;-55
2023/01/13 11:49:23;;;;;;;0.70;0.20;;;;;;;;;;5117792;28;20023;-53
2023/01/13 11:51:59;;;;;;;0.00;0.00;;;;;;;;;;5117817;28;20019;-54
2023/01/13 11:54:54;;;;;;;0.10;0.10;;;;;;;;;;5117256;28;20024;-54
2023/01/13 11:57:20;;;;;;;0.30;0.10;;;;;;;;;;5095861;28;20032;-54
2023/01/13 11:59:46;;;;;;;0.00;0.00;;;;;;;;;;5117142;28;20023;-55
2023/01/13 12:02:18;;;;;;;0.22;0.17;;;;;;;;;;5116905;28;20068;-55
2023/01/13 12:04:52;;;;;;;0.05;0.05;;;;;;;;;;5116807;28;20039;-55
2023/01/13 12:07:27;;;;;;;0.30;0.10;;;;;;;;;;5117386;28;20153;-56
2023/01/13 12:10:08;;;;;;;0.17;0.10;;;;;;;;;;5117051;28;20362;-53
2023/01/13 12:12:53;;;;;;;0.40;0.10;;;;;;;;;;5116896;28;20036;-53
2023/01/13 12:15:27;;;;;;;1.00;0.57;;;;;;;;;;5117379;28;20444;-55
2023/01/13 12:17:53;;;;;;;3.17;0.15;;;;;;;;;;5116742;28;20108;-55
2023/01/13 12:20:29;;;;;;;1.30;0.30;;;;;;;;;;5116686;28;20051;-56
2023/01/13 12:23:01;;;;;;;0.43;0.25;;;;;;;;;;5117058;28;20508;-53
2023/01/13 12:25:39;;;;;;;0.45;0.30;;;;;;;;;;5117175;28;20043;-54
2023/01/13 12:28:19;;;;;;;0.20;0.10;;;;;;;;;;5116466;28;20034;-53
2023/01/13 12:30:49;;;;;;;0.47;0.30;;;;;;;;;;5116512;28;20023;-55
2023/01/13 12:33:24;;;;;;;0.25;0.15;;;;;;;;;;5116994;28;20024;-53
2023/01/13 12:36:05;;;;;;;0.47;0.20;;;;;;;;;;5116679;28;20419;-56
2023/01/13 12:38:35;;;;;;;0.28;0.10;;;;;;;;;;5116817;28;20043;-55
2023/01/13 12:41:20;;;;;;;0.45;0.20;;;;;;;;;;5116348;28;20016;-55
2023/01/13 12:46:33;;;;;;;2.22;0.40;;;;;;;;;;5115829;28;20121;-56
2023/01/13 12:49:04;;;;;;;0.73;0.28;;;;;;;;;;5116136;28;20024;-54
2023/01/13 12:51:37;;;;;;;0.50;0.30;;;;;;;;;;5116426;28;20024;-56
2023/01/13 12:54:23;;;;;;;4.07;0.70;;;;;;;;;;5116770;28;20053;-57
2023/01/13 12:56:49;;;;;;;1.20;0.52;;;;;;;;;;5116459;28;20056;-57
2023/01/13 12:59:18;;;;;;;1.05;0.47;;;;;;;;;;5116008;28;20020;-54
2023/01/13 13:01:44;;;;;;;4.75;1.38;;;;;;;;;;5115789;28;20056;-54
2023/01/13 13:04:17;;;;;;;1.02;0.35;;;;;;;;;;5116316;28;20024;-54
2023/01/13 13:06:55;;;;;;;1.67;1.00;;;;;;;;;;5115686;28;20035;-55
2023/01/13 13:09:28;;;;;;;3.33;0.88;;;;;;;;;;5115504;28;20465;-55
2023/01/13 13:14:41;;;;;;;2.45;0.75;;;;;;;;;;5115799;28;20110;-54
2023/01/13 13:17:19;;;;;;;1.65;0.63;;;;;;;;;;5115682;28;20094;-56
2023/01/13 13:19:46;;;;;;;3.53;0.90;;;;;;;;;;5115494;28;20066;-54
2023/01/13 13:22:12;;;;;;;4.97;0.85;;;;;;;;;;5115698;28;20043;-54
2023/01/13 13:24:39;;;;;;;1.50;0.57;;;;;;;;;;5115221;28;20028;-54
2023/01/13 13:27:16;;;;;;;3.22;0.63;;;;;;;;;;5115276;28;20112;-53
2023/01/13 13:30:02;;;;;;;4.78;1.38;;;;;;;;;;5115467;28;20027;-56
2023/01/13 13:32:46;;;;;;;0.77;0.52;;;;;;;;;;5115159;28;20032;-53
2023/01/13 13:35:27;;;;;;;1.20;0.63;;;;;;;;;;5115391;28;20032;-55
2023/01/13 13:49:07;;;;;;;2.38;0.82;;;;;;;;;;5115041;28;20038;-57
2023/01/13 13:51:36;;;;;;;5.82;2.13;;;;;;;;;;5114791;28;20051;-54
2023/01/13 13:54:03;;;;;;;3.55;0.50;;;;;;;;;;5114871;28;20080;-54
2023/01/13 13:56:31;;;;;;;4.57;1.08;;;;;;;;;;5096531;28;20034;-52
2023/01/13 13:58:57;;;;;;;4.53;1.83;;;;;;;;;;5114800;28;20031;-54
2023/01/13 14:01:25;;;;;;;2.33;1.30;;;;;;;;;;5114805;28;20445;-53
2023/01/13 14:04:03;;;;;;;2.67;0.70;;;;;;;;;;5114577;28;20031;-54
2023/01/13 14:06:31;;;;;;;3.80;1.50;;;;;;;;;;5114347;28;20031;-54
2023/01/13 14:08:57;;;;;;;1.70;0.55;;;;;;;;;;5114566;28;20423;-55
2023/01/13 14:11:27;;;;;;;2.47;0.82;;;;;;;;;;5114857;28;20110;-55
2023/01/13 14:14:01;;;;;;;0.47;0.17;;;;;;;;;;5114178;28;20447;-56
2023/01/13 14:16:27;;;;;;;1.65;0.40;;;;;;;;;;5114849;28;20059;-54
2023/01/13 14:18:54;;;;;;;1.10;0.38;;;;;;;;;;5114943;28;20426;-54
2023/01/13 14:21:23;;;;;;;1.55;0.45;;;;;;;;;;5115078;28;20024;-49
2023/01/13 14:23:54;;;;;;;3.25;0.80;;;;;;;;;;5114227;28;20382;-51
2023/01/13 14:26:24;;;;;;;0.80;0.38;;;;;;;;;;5114579;28;20028;-52
2023/01/13 14:28:50;;;;;;;0.80;0.20;;;;;;;;;;5114221;28;20015;-51
2023/01/13 14:31:16;;;;;;;0.10;0.10;;;;;;;;;;5096903;28;20020;-51
2023/01/13 14:33:46;;;;;;;0.00;0.00;;;;;;;;;;5114294;28;20023;-50
2023/01/13 14:36:19;;;;;;;0.52;0.40;;;;;;;;;;5114596;28;20110;-51
2023/01/13 14:38:49;;;;;;;2.08;0.28;;;;;;;;;;5114255;28;20102;-52
2023/01/13 14:41:17;;;;;;;1.20;0.38;;;;;;;;;;5113981;28;20530;-50
2023/01/13 14:43:44;;;;;;;4.00;0.38;;;;;;;;;;5114271;28;20028;-49
2023/01/13 14:46:11;;;;;;;0.60;0.30;;;;;;;;;;5114528;28;20028;-52
2023/01/13 14:48:38;;;;;;;1.48;0.77;;;;;;;;;;5114404;28;20062;-53
2023/01/13 14:51:08;;;;;;;2.05;0.73;;;;;;;;;;5114881;28;20024;-50
2023/01/13 14:53:34;;;;;;;0.28;0.20;;;;;;;;;;5118625;28;20030;-49
2023/01/13 14:56:20;;;;;;;3.22;0.30;;;;;;;;;;5118544;28;20036;-53
2023/01/13 14:58:48;;;;;;;0.47;0.20;;;;;;;;;;5118704;28;20028;-51
2023/01/13 15:01:35;;;;;;;2.00;0.52;;;;;;;;;;5118768;28;20112;-50
2023/01/13 15:04:19;;;;;;;0.73;0.20;;;;;;;;;;5118062;28;20084;-51
2023/01/13 15:06:46;;;;;;;1.95;0.60;;;;;;;;;;5118140;28;20042;-50
2023/01/13 15:09:13;;;;;;;0.28;0.15;;;;;;;;;;5118021;28;20422;-53
2023/01/13 15:11:39;;;;;;;4.18;0.70;;;;;;;;;;5117970;28;20099;-54
2023/01/13 15:14:09;;;;;;;0.47;0.20;;;;;;;;;;5118041;28;20024;-55
2023/01/13 15:16:35;;;;;;;0.70;0.13;;;;;;;;;;5117839;28;20035;-53
2023/01/13 15:19:02;;;;;;;1.23;0.35;;;;;;;;;;5117796;28;20264;-51
2023/01/13 15:21:28;;;;;;;0.63;0.22;;;;;;;;;;5117861;28;20028;-53
2023/01/13 15:23:54;;;;;;;1.90;0.50;;;;;;;;;;5117655;28;20115;-52
2023/01/13 15:26:27;;;;;;;2.88;0.70;;;;;;;;;;5117974;28;20071;-53
2023/01/13 15:28:55;;;;;;;0.45;0.22;;;;;;;;;;5117650;28;20351;-55
2023/01/13 15:31:21;;;;;;;2.70;1.05;;;;;;;;;;5117577;28;20077;-55
2023/01/13 15:33:47;;;;;;;2.25;0.50;;;;;;;;;;5117545;28;20058;-52
2023/01/13 15:36:21;;;;;;;0.40;0.20;;;;;;;;;;5117364;28;20023;-56
2023/01/13 15:38:47;;;;;;;2.67;0.70;;;;;;;;;;5117512;28;20058;-52
2023/01/13 15:41:13;;;;;;;1.08;0.52;;;;;;;;;;5118009;28;20059;-51
2023/01/13 15:46:38;;;;;;;1.23;0.57;;;;;;;;;;5117089;28;20034;-53
2023/01/13 15:49:11;;;;;;;0.35;0.25;;;;;;;;;;5117879;28;20127;-52
2023/01/13 15:51:38;;;;;;;1.13;1.13;;;;;;;;;;5117787;28;20034;-52
2023/01/13 15:54:04;;;;;;;0.32;0.32;;;;;;;;;;5117582;28;20446;-56
2023/01/13 15:56:31;;;;;;;0.20;0.10;;;;;;;;;;5117149;28;20156;-51
2023/01/13 15:58:57;;;;;;;0.50;0.17;;;;;;;;;;5117135;28;20024;-53